createdAt,value
2017-03-31T00:00:56.407Z,12.60
2017-03-31T00:01:55.407Z,12.60
2017-03-31T00:02:54.376Z,12.60
2017-03-31T00:03:53.380Z,12.60
2017-03-31T00:04:52.354Z,12.60
2017-03-31T00:05:51.476Z,12.60
2017-03-31T00:06:50.099Z,12.60
2017-03-31T00:07:48.688Z,12.60
2017-03-31T00:08:47.691Z,12.60
2017-03-31T00:09:46.271Z,12.60
2017-03-31T00:10:45.232Z,12.60
2017-03-31T00:11:44.331Z,12.50
2017-03-31T00:12:43.354Z,12.50
2017-03-31T00:13:42.301Z,12.50
2017-03-31T00:14:41.332Z,12.50
2017-03-31T00:15:40.365Z,12.40
2017-03-31T00:16:39.369Z,12.40
2017-03-31T00:17:38.411Z,12.30
2017-03-31T00:18:37.744Z,12.40
2017-03-31T00:19:36.400Z,12.30
2017-03-31T00:20:35.340Z,12.30
2017-03-31T00:21:34.344Z,12.20
2017-03-31T00:22:33.349Z,12.20
2017-03-31T00:23:32.396Z,12.10
2017-03-31T00:24:31.393Z,12.10
2017-03-31T00:25:30.433Z,12.10
2017-03-31T00:26:29.423Z,12.00
2017-03-31T00:27:28.747Z,12.00
2017-03-31T00:28:27.768Z,11.90
2017-03-31T00:29:26.773Z,11.90
2017-03-31T00:30:25.837Z,11.90
2017-03-31T00:31:24.764Z,12.00
2017-03-31T00:32:23.759Z,12.00
2017-03-31T00:33:22.841Z,11.90
2017-03-31T00:34:21.867Z,11.90
2017-03-31T00:35:20.856Z,11.90
2017-03-31T00:36:19.851Z,11.90
2017-03-31T00:37:18.848Z,11.90
2017-03-31T00:38:17.805Z,11.80
2017-03-31T00:39:16.856Z,11.80
2017-03-31T00:40:16.640Z,11.80
2017-03-31T00:41:15.624Z,11.70
2017-03-31T00:42:14.638Z,11.70
2017-03-31T00:43:13.639Z,11.60
2017-03-31T00:44:12.269Z,11.70
2017-03-31T00:45:11.250Z,11.70
2017-03-31T00:46:10.240Z,11.70
2017-03-31T00:47:09.289Z,11.70
2017-03-31T00:48:08.893Z,11.80
2017-03-31T00:49:07.834Z,11.80
2017-03-31T00:50:06.512Z,11.80
2017-03-31T00:51:05.534Z,11.80
2017-03-31T00:52:04.591Z,11.80
2017-03-31T00:53:03.575Z,11.80
2017-03-31T00:54:02.184Z,11.80
2017-03-31T00:55:01.731Z,11.80
2017-03-31T00:56:00.727Z,11.70
2017-03-31T00:56:59.702Z,11.80
2017-03-31T00:57:58.738Z,11.80
2017-03-31T00:58:57.838Z,11.80
2017-03-31T00:59:56.799Z,11.80
2017-03-31T01:00:55.852Z,11.80
2017-03-31T01:01:54.831Z,11.80
2017-03-31T01:02:53.435Z,11.90
2017-03-31T01:03:51.972Z,11.80
2017-03-31T01:04:50.684Z,11.80
2017-03-31T01:05:49.720Z,11.70
2017-03-31T01:06:48.728Z,11.70
2017-03-31T01:07:47.663Z,11.60
2017-03-31T01:08:46.593Z,11.70
2017-03-31T01:09:45.232Z,11.70
2017-03-31T01:10:44.202Z,11.60
2017-03-31T01:11:43.292Z,11.60
2017-03-31T01:12:42.284Z,11.60
2017-03-31T01:13:41.254Z,11.50
2017-03-31T01:14:40.298Z,11.50
2017-03-31T01:15:39.285Z,11.50
2017-03-31T01:16:37.934Z,11.50
2017-03-31T01:17:36.936Z,11.40
2017-03-31T01:18:35.999Z,11.40
2017-03-31T01:19:34.974Z,11.40
2017-03-31T01:20:34.024Z,11.40
2017-03-31T01:21:33.467Z,11.40
2017-03-31T01:22:32.547Z,11.30
2017-03-31T01:23:31.582Z,11.30
2017-03-31T01:24:30.175Z,11.30
2017-03-31T01:25:29.172Z,11.20
2017-03-31T01:26:28.165Z,11.20
2017-03-31T01:27:27.187Z,11.20
2017-03-31T01:28:25.803Z,11.30
2017-03-31T01:29:24.840Z,11.20
2017-03-31T01:30:23.808Z,11.20
2017-03-31T01:31:22.801Z,11.10
2017-03-31T01:32:21.942Z,11.10
2017-03-31T01:33:20.936Z,11.10
2017-03-31T01:34:19.937Z,11.10
2017-03-31T01:35:18.556Z,11.10
2017-03-31T01:36:17.539Z,11.10
2017-03-31T01:37:16.534Z,11.10
2017-03-31T01:38:15.891Z,11.10
2017-03-31T01:39:14.902Z,11.00
2017-03-31T01:40:13.874Z,11.00
2017-03-31T01:41:12.595Z,11.00
2017-03-31T01:42:11.651Z,11.00
2017-03-31T01:43:10.626Z,11.00
2017-03-31T01:44:09.607Z,10.90
2017-03-31T01:45:09.003Z,10.90
2017-03-31T01:46:08.324Z,10.90
2017-03-31T01:47:07.404Z,10.90
2017-03-31T01:48:06.421Z,10.90
2017-03-31T01:49:05.391Z,10.80
2017-03-31T01:50:03.992Z,10.90
2017-03-31T01:51:03.000Z,10.80
2017-03-31T01:52:02.033Z,10.80
2017-03-31T01:53:01.413Z,10.90
2017-03-31T01:54:00.375Z,10.90
2017-03-31T01:54:59.315Z,10.80
2017-03-31T01:55:58.700Z,10.80
2017-03-31T01:56:57.679Z,10.80
2017-03-31T01:57:56.648Z,10.80
2017-03-31T01:58:55.674Z,10.80
2017-03-31T01:59:54.700Z,10.80
2017-03-31T02:00:53.823Z,10.80
2017-03-31T02:01:52.787Z,10.80
2017-03-31T02:02:51.788Z,10.70
2017-03-31T02:03:50.469Z,10.80
2017-03-31T02:04:49.491Z,10.70
2017-03-31T02:05:48.892Z,10.70
2017-03-31T02:06:48.256Z,10.70
2017-03-31T02:07:47.307Z,10.70
2017-03-31T02:08:46.296Z,10.70
2017-03-31T02:09:45.296Z,10.70
2017-03-31T02:10:43.960Z,10.70
2017-03-31T02:11:43.035Z,10.70
2017-03-31T02:12:42.056Z,10.60
2017-03-31T02:13:40.669Z,10.70
2017-03-31T02:14:39.643Z,10.60
2017-03-31T02:15:39.049Z,10.70
2017-03-31T02:16:37.659Z,10.70
2017-03-31T02:17:36.226Z,10.60
2017-03-31T02:18:35.223Z,10.60
2017-03-31T02:19:34.153Z,10.60
2017-03-31T02:20:33.112Z,10.70
2017-03-31T02:21:32.101Z,10.70
2017-03-31T02:22:31.447Z,10.70
2017-03-31T02:23:30.444Z,10.60
2017-03-31T02:24:29.379Z,10.60
2017-03-31T02:25:28.379Z,10.60
2017-03-31T02:26:26.985Z,10.60
2017-03-31T02:27:25.939Z,10.60
2017-03-31T02:28:24.967Z,10.50
2017-03-31T02:29:23.959Z,10.50
2017-03-31T02:30:22.576Z,10.60
2017-03-31T02:31:21.581Z,10.40
2017-03-31T02:32:20.580Z,10.40
2017-03-31T02:33:19.130Z,10.50
2017-03-31T02:34:18.224Z,10.40
2017-03-31T02:35:17.976Z,10.40
2017-03-31T02:36:16.938Z,10.40
2017-03-31T02:37:15.643Z,10.40
2017-03-31T02:38:14.987Z,10.30
2017-03-31T02:39:13.917Z,10.30
2017-03-31T02:40:12.995Z,10.30
2017-03-31T02:41:11.923Z,10.30
2017-03-31T02:42:10.555Z,10.30
2017-03-31T02:43:09.579Z,10.30
2017-03-31T02:44:08.591Z,10.30
2017-03-31T02:45:07.549Z,10.40
2017-03-31T02:46:06.591Z,10.50
2017-03-31T02:47:05.667Z,10.50
2017-03-31T02:48:04.701Z,10.50
2017-03-31T02:49:03.772Z,10.50
2017-03-31T02:50:02.796Z,10.60
2017-03-31T02:51:01.730Z,10.50
2017-03-31T02:52:00.756Z,10.50
2017-03-31T02:52:59.755Z,10.50
2017-03-31T02:53:58.732Z,10.50
2017-03-31T02:54:57.649Z,10.50
2017-03-31T02:55:56.710Z,10.50
2017-03-31T02:56:55.732Z,10.50
2017-03-31T02:57:54.319Z,10.60
2017-03-31T02:58:54.035Z,10.50
2017-03-31T02:59:52.995Z,10.50
2017-03-31T03:00:52.007Z,10.40
2017-03-31T03:01:51.015Z,10.40
2017-03-31T03:02:50.036Z,10.40
2017-03-31T03:03:49.025Z,10.40
2017-03-31T03:04:48.059Z,10.30
2017-03-31T03:05:47.027Z,10.30
2017-03-31T03:06:46.048Z,10.30
2017-03-31T03:07:45.022Z,10.30
2017-03-31T03:08:44.003Z,10.40
2017-03-31T03:09:42.972Z,10.40
2017-03-31T03:10:41.976Z,10.40
2017-03-31T03:11:40.931Z,10.40
2017-03-31T03:12:39.935Z,10.40
2017-03-31T03:13:38.881Z,10.50
2017-03-31T03:14:37.924Z,10.50
2017-03-31T03:15:37.311Z,10.40
2017-03-31T03:16:36.335Z,10.40
2017-03-31T03:17:34.976Z,10.40
2017-03-31T03:18:33.972Z,10.30
2017-03-31T03:19:32.964Z,10.30
2017-03-31T03:20:31.941Z,10.40
2017-03-31T03:21:30.976Z,10.30
2017-03-31T03:22:29.981Z,10.30
2017-03-31T03:23:28.996Z,10.30
2017-03-31T03:24:27.989Z,10.30
2017-03-31T03:25:26.992Z,10.30
2017-03-31T03:26:25.943Z,10.30
2017-03-31T03:27:24.571Z,10.30
2017-03-31T03:28:23.231Z,10.20
2017-03-31T03:29:22.239Z,10.10
2017-03-31T03:30:21.308Z,10.10
2017-03-31T03:31:20.319Z,10.00
2017-03-31T03:32:19.303Z,10.00
2017-03-31T03:33:18.302Z,10.00
2017-03-31T03:34:16.840Z,10.00
2017-03-31T03:35:15.848Z,10.00
2017-03-31T03:36:14.856Z,10.00
2017-03-31T03:37:14.158Z,10.00
2017-03-31T03:38:13.192Z,10.00
2017-03-31T03:39:12.164Z,10.00
2017-03-31T03:40:11.135Z,10.00
2017-03-31T03:41:10.140Z,10.00
2017-03-31T03:42:09.128Z,10.00
2017-03-31T03:43:08.117Z,10.00
2017-03-31T03:44:07.175Z,10.00
2017-03-31T03:45:06.519Z,10.00
2017-03-31T03:46:05.116Z,10.00
2017-03-31T03:47:04.151Z,10.00
2017-03-31T03:48:03.124Z,10.00
2017-03-31T03:49:02.140Z,10.00
2017-03-31T03:50:01.192Z,10.10
2017-03-31T03:51:00.195Z,10.10
2017-03-31T03:51:58.775Z,10.10
2017-03-31T03:52:57.776Z,10.00
2017-03-31T03:53:56.847Z,9.90
2017-03-31T03:54:55.840Z,9.90
2017-03-31T03:55:55.176Z,9.90
2017-03-31T03:56:53.767Z,9.90
2017-03-31T03:57:52.724Z,9.90
2017-03-31T03:58:51.748Z,9.90
2017-03-31T03:59:50.763Z,9.90
2017-03-31T04:00:49.352Z,9.90
2017-03-31T04:01:48.307Z,9.90
2017-03-31T04:02:47.295Z,9.90
2017-03-31T04:03:46.266Z,10.00
2017-03-31T04:04:44.907Z,10.00
2017-03-31T04:05:43.920Z,10.00
2017-03-31T04:06:42.931Z,10.00
2017-03-31T04:07:42.287Z,10.00
2017-03-31T04:08:41.272Z,10.00
2017-03-31T04:09:40.277Z,9.90
2017-03-31T04:10:38.852Z,10.00
2017-03-31T04:11:37.932Z,10.00
2017-03-31T04:12:37.014Z,10.00
2017-03-31T04:13:35.612Z,10.00
2017-03-31T04:14:34.907Z,10.00
2017-03-31T04:15:33.928Z,9.90
2017-03-31T04:16:32.899Z,9.90
2017-03-31T04:17:31.975Z,9.90
2017-03-31T04:18:30.994Z,10.00
2017-03-31T04:19:29.975Z,10.00
2017-03-31T04:20:28.950Z,10.00
2017-03-31T04:21:27.918Z,10.00
2017-03-31T04:22:27.024Z,9.90
2017-03-31T04:23:26.095Z,9.90
2017-03-31T04:24:25.045Z,9.90
2017-03-31T04:25:24.062Z,9.90
2017-03-31T04:26:23.060Z,9.90
2017-03-31T04:27:22.127Z,9.90
2017-03-31T04:28:21.139Z,9.80
2017-03-31T04:29:20.196Z,9.80
2017-03-31T04:30:19.207Z,9.70
2017-03-31T04:31:18.187Z,9.70
2017-03-31T04:32:17.199Z,9.70
2017-03-31T04:33:16.544Z,9.70
2017-03-31T04:34:15.164Z,9.70
2017-03-31T04:35:14.187Z,9.60
2017-03-31T04:36:13.192Z,9.60
2017-03-31T04:37:12.572Z,9.60
2017-03-31T04:38:11.570Z,9.60
2017-03-31T04:39:10.531Z,9.60
2017-03-31T04:40:09.888Z,9.60
2017-03-31T04:41:09.237Z,9.60
2017-03-31T04:42:08.238Z,9.60
2017-03-31T04:43:07.236Z,9.50
2017-03-31T04:44:06.555Z,9.50
2017-03-31T04:45:05.552Z,9.50
2017-03-31T04:46:04.560Z,9.50
2017-03-31T04:47:03.563Z,9.50
2017-03-31T04:48:02.560Z,9.50
2017-03-31T04:49:01.536Z,9.50
2017-03-31T04:50:00.528Z,9.50
2017-03-31T04:50:59.093Z,9.50
2017-03-31T04:51:58.076Z,9.50
2017-03-31T04:52:56.662Z,9.50
2017-03-31T04:53:55.663Z,9.50
2017-03-31T04:54:54.324Z,9.50
2017-03-31T04:55:53.348Z,9.40
2017-03-31T04:56:52.328Z,9.40
2017-03-31T04:57:51.271Z,9.40
2017-03-31T04:58:50.296Z,9.40
2017-03-31T04:59:49.793Z,9.40
2017-03-31T05:00:48.452Z,9.40
2017-03-31T05:01:47.119Z,9.40
2017-03-31T05:02:46.127Z,9.40
2017-03-31T05:03:45.079Z,9.40
2017-03-31T05:04:44.109Z,9.40
2017-03-31T05:05:43.014Z,9.40
2017-03-31T05:06:41.656Z,9.40
2017-03-31T05:07:40.708Z,9.40
2017-03-31T05:08:40.039Z,9.40
2017-03-31T05:09:39.011Z,9.30
2017-03-31T05:10:37.989Z,9.40
2017-03-31T05:11:37.007Z,9.30
2017-03-31T05:12:35.952Z,9.30
2017-03-31T05:13:34.912Z,9.40
2017-03-31T05:14:33.961Z,9.40
2017-03-31T05:15:32.931Z,9.40
2017-03-31T05:16:31.890Z,9.40
2017-03-31T05:17:30.539Z,9.40
2017-03-31T05:18:29.515Z,9.40
2017-03-31T05:19:28.536Z,9.40
2017-03-31T05:20:27.562Z,9.40
2017-03-31T05:21:26.536Z,9.30
2017-03-31T05:22:25.543Z,9.30
2017-03-31T05:23:24.544Z,9.30
2017-03-31T05:24:23.539Z,9.30
2017-03-31T05:25:22.902Z,9.30
2017-03-31T05:26:21.884Z,9.40
2017-03-31T05:27:20.924Z,9.40
2017-03-31T05:28:19.860Z,9.40
2017-03-31T05:29:18.874Z,9.40
2017-03-31T05:30:17.873Z,9.40
2017-03-31T05:31:16.907Z,9.40
2017-03-31T05:32:15.547Z,9.40
2017-03-31T05:33:14.560Z,9.40
2017-03-31T05:34:13.539Z,9.40
2017-03-31T05:35:12.520Z,9.40
2017-03-31T05:36:11.107Z,9.40
2017-03-31T05:37:10.099Z,9.40
2017-03-31T05:38:09.035Z,9.40
2017-03-31T05:39:08.047Z,9.40
2017-03-31T05:40:07.039Z,9.40
2017-03-31T05:41:06.047Z,9.50
2017-03-31T05:42:05.063Z,9.50
2017-03-31T05:43:03.700Z,9.50
2017-03-31T05:44:02.296Z,9.60
2017-03-31T05:45:01.308Z,9.60
2017-03-31T05:46:00.264Z,9.50
2017-03-31T05:46:59.403Z,9.50
2017-03-31T05:47:58.487Z,9.60
2017-03-31T05:48:57.496Z,9.60
2017-03-31T05:49:56.119Z,9.60
2017-03-31T05:50:54.637Z,9.70
2017-03-31T05:51:53.687Z,9.80
2017-03-31T05:52:52.687Z,9.90
2017-03-31T05:53:51.632Z,9.90
2017-03-31T05:54:50.255Z,9.90
2017-03-31T05:55:49.227Z,9.90
2017-03-31T05:56:48.247Z,9.90
2017-03-31T05:57:47.606Z,10.00
2017-03-31T05:58:46.574Z,10.00
2017-03-31T05:59:45.536Z,10.00
2017-03-31T06:00:44.275Z,10.00
2017-03-31T06:01:43.210Z,10.00
2017-03-31T06:02:42.223Z,10.00
2017-03-31T06:03:41.160Z,10.00
2017-03-31T06:04:40.192Z,10.00
2017-03-31T06:05:39.140Z,10.00
2017-03-31T06:06:38.197Z,10.10
2017-03-31T06:07:37.236Z,10.20
2017-03-31T06:08:36.220Z,10.30
2017-03-31T06:09:34.867Z,10.30
2017-03-31T06:10:33.878Z,10.40
2017-03-31T06:11:32.838Z,10.40
2017-03-31T06:12:31.854Z,10.40
2017-03-31T06:13:30.466Z,10.40
2017-03-31T06:14:29.440Z,10.40
2017-03-31T06:15:28.433Z,10.50
2017-03-31T06:16:27.487Z,10.60
2017-03-31T06:17:26.499Z,10.50
2017-03-31T06:18:25.599Z,10.50
2017-03-31T06:19:24.629Z,10.60
2017-03-31T06:20:23.645Z,10.60
2017-03-31T06:21:22.705Z,10.60
2017-03-31T06:22:21.851Z,10.70
2017-03-31T06:23:20.817Z,10.70
2017-03-31T06:24:19.830Z,10.80
2017-03-31T06:25:18.858Z,10.80
2017-03-31T06:26:17.872Z,10.80
2017-03-31T06:27:16.455Z,10.80
2017-03-31T06:28:15.479Z,10.80
2017-03-31T06:29:14.113Z,10.80
2017-03-31T06:30:13.160Z,10.80
2017-03-31T06:31:12.164Z,10.80
2017-03-31T06:32:11.163Z,10.80
2017-03-31T06:33:10.155Z,10.80
2017-03-31T06:34:09.522Z,10.90
2017-03-31T06:35:08.551Z,10.90
2017-03-31T06:36:07.593Z,11.00
2017-03-31T06:37:06.667Z,11.00
2017-03-31T06:38:05.647Z,11.10
2017-03-31T06:39:04.797Z,11.10
2017-03-31T06:40:03.837Z,11.10
2017-03-31T06:41:02.868Z,11.10
2017-03-31T06:42:01.908Z,11.10
2017-03-31T06:43:00.875Z,11.20
2017-03-31T06:43:59.891Z,11.20
2017-03-31T06:44:58.887Z,11.20
2017-03-31T06:45:57.897Z,11.30
2017-03-31T06:46:56.921Z,11.30
2017-03-31T06:47:55.936Z,11.30
2017-03-31T06:48:54.948Z,11.30
2017-03-31T06:49:54.000Z,11.40
2017-03-31T06:50:52.603Z,11.40
2017-03-31T06:51:51.604Z,11.50
2017-03-31T06:52:50.603Z,11.50
2017-03-31T06:53:49.228Z,11.50
2017-03-31T06:54:47.782Z,11.50
2017-03-31T06:55:46.795Z,11.50
2017-03-31T06:56:45.767Z,11.60
2017-03-31T06:57:44.811Z,11.60
2017-03-31T06:58:43.808Z,11.60
2017-03-31T06:59:42.460Z,11.60
2017-03-31T07:00:41.088Z,11.70
2017-03-31T07:01:40.107Z,11.80
2017-03-31T07:02:39.163Z,11.80
2017-03-31T07:03:38.156Z,11.80
2017-03-31T07:04:37.121Z,11.90
2017-03-31T07:05:36.187Z,11.90
2017-03-31T07:06:35.181Z,11.90
2017-03-31T07:07:34.882Z,11.90
2017-03-31T07:08:33.520Z,11.90
2017-03-31T07:09:32.487Z,11.90
2017-03-31T07:10:31.547Z,11.90
2017-03-31T07:11:30.527Z,11.90
2017-03-31T07:12:29.569Z,12.00
2017-03-31T07:13:28.679Z,12.10
2017-03-31T07:14:27.692Z,12.10
2017-03-31T07:15:26.787Z,12.10
2017-03-31T07:16:25.792Z,12.20
2017-03-31T07:17:24.827Z,12.20
2017-03-31T07:18:23.858Z,12.20
2017-03-31T07:19:22.975Z,12.20
2017-03-31T07:20:21.999Z,12.20
2017-03-31T07:21:21.004Z,12.30
2017-03-31T07:22:20.141Z,12.30
2017-03-31T07:23:19.117Z,12.30
2017-03-31T07:24:18.211Z,12.30
2017-03-31T07:25:16.832Z,12.30
2017-03-31T07:26:15.477Z,12.40
2017-03-31T07:27:14.499Z,12.40
2017-03-31T07:28:13.128Z,12.40
2017-03-31T07:29:12.120Z,12.50
2017-03-31T07:30:10.719Z,12.50
2017-03-31T07:31:09.324Z,12.60
2017-03-31T07:32:08.371Z,12.60
2017-03-31T07:33:07.404Z,12.60
2017-03-31T07:34:06.456Z,12.70
2017-03-31T07:35:05.548Z,12.70
2017-03-31T07:36:04.177Z,12.70
2017-03-31T07:37:03.252Z,12.70
2017-03-31T07:38:02.375Z,12.70
2017-03-31T07:39:01.452Z,12.80
2017-03-31T07:40:00.470Z,12.70
2017-03-31T07:40:59.507Z,12.80
2017-03-31T07:41:58.470Z,12.90
2017-03-31T07:42:57.464Z,13.00
2017-03-31T07:43:56.592Z,13.00
2017-03-31T07:44:55.660Z,13.00
2017-03-31T07:45:54.671Z,13.00
2017-03-31T07:46:53.724Z,13.00
2017-03-31T07:47:52.703Z,13.00
2017-03-31T07:48:51.650Z,13.00
2017-03-31T07:49:50.651Z,13.00
2017-03-31T07:50:49.619Z,13.10
2017-03-31T07:51:48.622Z,13.10
2017-03-31T07:52:47.305Z,13.10
2017-03-31T07:53:45.903Z,13.20
2017-03-31T07:54:44.885Z,13.30
2017-03-31T07:55:43.904Z,13.30
2017-03-31T07:56:42.852Z,13.40
2017-03-31T07:57:41.907Z,13.30
2017-03-31T07:58:40.916Z,13.40
2017-03-31T07:59:39.934Z,13.40
2017-03-31T08:00:38.943Z,13.50
2017-03-31T08:01:37.907Z,13.60
2017-03-31T08:02:36.957Z,13.60
2017-03-31T08:03:35.990Z,13.60
2017-03-31T08:04:35.036Z,13.60
2017-03-31T08:05:33.659Z,13.60
2017-03-31T08:06:32.848Z,13.70
2017-03-31T08:07:31.863Z,13.80
2017-03-31T08:08:30.859Z,13.90
2017-03-31T08:09:29.500Z,13.90
2017-03-31T08:10:29.295Z,14.10
2017-03-31T08:11:27.911Z,14.10
2017-03-31T08:12:26.869Z,14.10
2017-03-31T08:13:25.980Z,14.20
2017-03-31T08:14:24.988Z,14.20
2017-03-31T08:15:24.347Z,14.30
2017-03-31T08:16:23.387Z,14.30
2017-03-31T08:17:22.387Z,14.30
2017-03-31T08:18:21.431Z,14.30
2017-03-31T08:19:21.157Z,14.40
2017-03-31T08:20:20.215Z,14.50
2017-03-31T08:21:19.180Z,14.60
2017-03-31T08:22:18.228Z,14.60
2017-03-31T08:23:17.232Z,14.60
2017-03-31T08:24:16.283Z,14.60
2017-03-31T08:25:14.903Z,14.60
2017-03-31T08:26:13.991Z,14.70
2017-03-31T08:27:12.995Z,14.80
2017-03-31T08:28:12.027Z,14.90
2017-03-31T08:29:11.020Z,15.00
2017-03-31T08:30:09.662Z,15.00
2017-03-31T08:31:08.635Z,15.10
2017-03-31T08:32:07.663Z,15.10
2017-03-31T08:33:06.663Z,15.20
2017-03-31T08:34:05.731Z,15.20
2017-03-31T08:35:04.528Z,15.20
2017-03-31T08:36:03.528Z,15.40
2017-03-31T08:37:02.568Z,15.40
2017-03-31T08:38:01.565Z,15.50
2017-03-31T08:39:00.543Z,15.50
2017-03-31T08:39:59.571Z,15.50
2017-03-31T08:40:58.895Z,15.60
2017-03-31T08:41:57.888Z,15.80
2017-03-31T08:42:56.944Z,15.70
2017-03-31T08:43:55.555Z,15.80
2017-03-31T08:44:54.547Z,15.80
2017-03-31T08:45:53.506Z,15.80
2017-03-31T08:46:52.507Z,15.90
2017-03-31T08:47:51.527Z,15.90
2017-03-31T08:48:50.495Z,15.80
2017-03-31T08:49:49.150Z,15.80
2017-03-31T08:50:48.168Z,16.10
2017-03-31T08:51:47.153Z,16.00
2017-03-31T08:52:46.163Z,16.00
2017-03-31T08:53:45.156Z,15.90
2017-03-31T08:54:44.135Z,16.10
2017-03-31T08:55:43.124Z,16.10
2017-03-31T08:56:42.132Z,16.10
2017-03-31T08:57:41.180Z,16.30
2017-03-31T08:58:40.126Z,16.40
2017-03-31T08:59:38.812Z,16.40
2017-03-31T09:00:37.811Z,16.30
2017-03-31T09:01:36.419Z,16.30
2017-03-31T09:02:35.407Z,16.40
2017-03-31T09:03:34.036Z,16.40
2017-03-31T09:04:32.707Z,16.40
2017-03-31T09:05:31.415Z,16.40
2017-03-31T09:06:30.382Z,16.40
2017-03-31T09:07:29.411Z,16.60
2017-03-31T09:08:28.431Z,16.60
2017-03-31T09:09:27.439Z,16.70
2017-03-31T09:10:26.836Z,16.70
2017-03-31T09:11:25.803Z,17.00
2017-03-31T09:12:24.787Z,17.00
2017-03-31T09:13:23.794Z,17.20
2017-03-31T09:14:22.812Z,17.30
2017-03-31T09:15:21.500Z,17.30
2017-03-31T09:16:20.534Z,17.50
2017-03-31T09:17:19.566Z,17.40
2017-03-31T09:18:18.987Z,17.40
2017-03-31T09:19:17.981Z,17.40
2017-03-31T09:20:17.628Z,17.60
2017-03-31T09:21:17.380Z,17.60
2017-03-31T09:22:16.351Z,17.70
2017-03-31T09:23:15.307Z,17.70
2017-03-31T09:24:14.295Z,17.70
2017-03-31T09:25:13.290Z,17.80
2017-03-31T09:26:12.235Z,17.80
2017-03-31T09:27:11.235Z,17.80
2017-03-31T09:28:10.240Z,17.90
2017-03-31T09:29:09.244Z,18.00
2017-03-31T09:30:08.233Z,18.00
2017-03-31T09:31:07.203Z,18.10
2017-03-31T09:32:06.252Z,18.10
2017-03-31T09:33:05.222Z,18.20
2017-03-31T09:34:04.352Z,18.30
2017-03-31T09:35:03.366Z,18.40
2017-03-31T09:36:02.353Z,18.40
2017-03-31T09:37:01.752Z,18.60
2017-03-31T09:38:00.320Z,18.60
2017-03-31T09:38:59.753Z,18.60
2017-03-31T09:39:58.795Z,18.70
2017-03-31T09:40:57.851Z,18.70
2017-03-31T09:41:56.867Z,18.60
2017-03-31T09:42:56.242Z,18.70
2017-03-31T09:43:55.203Z,18.70
2017-03-31T09:44:54.158Z,18.70
2017-03-31T09:45:53.165Z,18.70
2017-03-31T09:46:52.596Z,18.80
2017-03-31T09:47:51.932Z,18.80
2017-03-31T09:48:51.015Z,18.80
2017-03-31T09:49:50.002Z,18.80
2017-03-31T09:50:49.004Z,19.00
2017-03-31T09:51:48.017Z,19.10
2017-03-31T09:52:47.071Z,19.30
2017-03-31T09:53:45.676Z,19.30
2017-03-31T09:54:44.662Z,19.20
2017-03-31T09:55:43.274Z,19.20
2017-03-31T09:56:42.308Z,19.40
2017-03-31T09:57:41.324Z,19.30
2017-03-31T09:58:40.321Z,19.40
2017-03-31T09:59:39.280Z,19.50
2017-03-31T10:00:38.641Z,19.50
2017-03-31T10:01:37.680Z,19.60
2017-03-31T10:02:36.701Z,19.60
2017-03-31T10:03:35.732Z,19.70
2017-03-31T10:04:35.036Z,19.80
2017-03-31T10:05:34.075Z,19.80
2017-03-31T10:06:33.003Z,19.80
2017-03-31T10:07:32.062Z,19.80
2017-03-31T10:08:31.076Z,19.80
2017-03-31T10:09:29.727Z,19.80
2017-03-31T10:10:28.808Z,19.80
2017-03-31T10:11:27.915Z,19.80
2017-03-31T10:12:26.918Z,19.80
2017-03-31T10:13:25.872Z,19.80
2017-03-31T10:14:25.707Z,20.00
2017-03-31T10:15:24.329Z,20.00
2017-03-31T10:16:23.447Z,20.00
2017-03-31T10:17:22.512Z,20.00
2017-03-31T10:18:21.559Z,20.10
2017-03-31T10:19:20.555Z,20.20
2017-03-31T10:20:20.048Z,20.30
2017-03-31T10:21:19.105Z,20.40
2017-03-31T10:22:18.142Z,20.50
2017-03-31T10:23:17.225Z,20.50
2017-03-31T10:24:16.182Z,20.40
2017-03-31T10:25:14.771Z,20.40
2017-03-31T10:26:14.519Z,20.50
2017-03-31T10:27:13.575Z,20.60
2017-03-31T10:28:12.588Z,20.60
2017-03-31T10:29:11.683Z,20.60
2017-03-31T10:30:10.738Z,20.70
2017-03-31T10:31:09.719Z,20.70
2017-03-31T10:32:08.323Z,20.70
2017-03-31T10:33:06.944Z,20.80
2017-03-31T10:34:06.055Z,20.80
2017-03-31T10:35:05.043Z,20.80
2017-03-31T10:36:04.436Z,20.80
2017-03-31T10:37:03.419Z,21.10
2017-03-31T10:38:02.431Z,21.10
2017-03-31T10:39:01.444Z,21.20
2017-03-31T10:40:00.456Z,21.20
2017-03-31T10:40:59.032Z,21.20
2017-03-31T10:41:57.637Z,21.20
2017-03-31T10:42:56.620Z,21.40
2017-03-31T10:43:55.580Z,21.40
2017-03-31T10:44:54.592Z,21.50
2017-03-31T10:45:53.199Z,21.50
2017-03-31T10:46:52.160Z,21.60
2017-03-31T10:47:51.250Z,21.80
2017-03-31T10:48:50.235Z,21.80
2017-03-31T10:49:49.223Z,21.80
2017-03-31T10:50:48.207Z,21.70
2017-03-31T10:51:46.807Z,21.70
2017-03-31T10:52:45.871Z,21.90
2017-03-31T10:53:44.877Z,21.90
2017-03-31T10:54:43.576Z,21.90
2017-03-31T10:55:42.568Z,21.70
2017-03-31T10:56:41.595Z,21.80
2017-03-31T10:57:40.614Z,21.90
2017-03-31T10:58:39.660Z,21.90
2017-03-31T10:59:38.317Z,21.90
2017-03-31T11:00:37.076Z,21.90
2017-03-31T11:01:36.474Z,22.20
2017-03-31T11:02:35.495Z,22.20
2017-03-31T11:03:34.522Z,22.10
2017-03-31T11:04:33.579Z,22.10
2017-03-31T11:05:32.516Z,22.10
2017-03-31T11:06:31.130Z,22.10
2017-03-31T11:07:30.164Z,22.10
2017-03-31T11:08:28.776Z,22.10
2017-03-31T11:09:27.856Z,22.20
2017-03-31T11:10:26.868Z,22.30
2017-03-31T11:11:25.905Z,22.40
2017-03-31T11:12:24.475Z,22.40
2017-03-31T11:13:23.543Z,22.40
2017-03-31T11:14:22.541Z,22.40
2017-03-31T11:15:21.671Z,22.40
2017-03-31T11:16:20.303Z,22.40
2017-03-31T11:17:19.344Z,22.50
2017-03-31T11:18:18.319Z,22.50
2017-03-31T11:19:17.312Z,22.50
2017-03-31T11:20:16.318Z,22.50
2017-03-31T11:21:14.976Z,22.50
2017-03-31T11:22:13.947Z,22.40
2017-03-31T11:23:12.970Z,22.40
2017-03-31T11:24:12.184Z,22.30
2017-03-31T11:25:11.191Z,22.30
2017-03-31T11:26:10.238Z,22.30
2017-03-31T11:27:09.682Z,22.30
2017-03-31T11:28:08.692Z,22.40
2017-03-31T11:29:07.288Z,22.40
2017-03-31T11:30:06.303Z,22.40
2017-03-31T11:31:05.373Z,22.50
2017-03-31T11:32:04.366Z,22.40
2017-03-31T11:33:02.987Z,22.40
2017-03-31T11:34:01.571Z,22.50
2017-03-31T11:35:00.538Z,22.70
2017-03-31T11:35:59.489Z,22.70
2017-03-31T11:36:58.499Z,22.60
2017-03-31T11:37:57.459Z,22.50
2017-03-31T11:38:56.441Z,22.60
2017-03-31T11:39:55.455Z,22.60
2017-03-31T11:40:54.419Z,22.70
2017-03-31T11:41:53.449Z,22.70
2017-03-31T11:42:52.426Z,22.70
2017-03-31T11:43:51.392Z,22.80
2017-03-31T11:44:50.031Z,22.80
2017-03-31T11:45:49.005Z,22.70
2017-03-31T11:46:48.023Z,22.80
2017-03-31T11:47:47.044Z,22.90
2017-03-31T11:48:46.059Z,22.90
2017-03-31T11:49:45.043Z,22.90
2017-03-31T11:50:44.094Z,23.00
2017-03-31T11:51:43.072Z,22.90
2017-03-31T11:52:42.464Z,22.90
2017-03-31T11:53:41.459Z,23.10
2017-03-31T11:54:40.860Z,23.20
2017-03-31T11:55:40.326Z,23.20
2017-03-31T11:56:39.327Z,23.10
2017-03-31T11:57:38.711Z,23.00
2017-03-31T11:58:37.743Z,23.10
2017-03-31T11:59:36.855Z,23.20
2017-03-31T12:00:35.935Z,23.30
2017-03-31T12:01:34.564Z,23.20
2017-03-31T12:02:33.625Z,23.30
2017-03-31T12:03:32.587Z,23.30
2017-03-31T12:04:31.699Z,23.30
2017-03-31T12:05:30.307Z,23.30
2017-03-31T12:06:29.314Z,23.30
2017-03-31T12:07:28.303Z,23.40
2017-03-31T12:08:27.289Z,23.40
2017-03-31T12:09:26.379Z,23.40
2017-03-31T12:10:25.373Z,23.40
2017-03-31T12:11:23.979Z,23.40
2017-03-31T12:12:23.286Z,23.40
2017-03-31T12:13:22.290Z,23.50
2017-03-31T12:14:22.027Z,23.50
2017-03-31T12:15:21.027Z,23.60
2017-03-31T12:16:20.016Z,23.60
2017-03-31T12:17:19.026Z,23.50
2017-03-31T12:18:17.981Z,23.50
2017-03-31T12:19:17.019Z,23.50
2017-03-31T12:20:15.994Z,23.50
2017-03-31T12:21:14.993Z,23.50
2017-03-31T12:22:13.985Z,23.50
2017-03-31T12:23:12.980Z,23.40
2017-03-31T12:24:11.950Z,23.40
2017-03-31T12:25:10.903Z,23.50
2017-03-31T12:26:09.519Z,23.50
2017-03-31T12:27:08.531Z,23.70
2017-03-31T12:28:07.510Z,23.70
2017-03-31T12:29:06.502Z,23.80
2017-03-31T12:30:05.468Z,23.70
2017-03-31T12:31:04.451Z,23.70
2017-03-31T12:32:03.415Z,23.90
2017-03-31T12:33:02.418Z,23.90
2017-03-31T12:34:01.404Z,23.90
2017-03-31T12:35:00.419Z,24.00
2017-03-31T12:35:59.035Z,24.00
2017-03-31T12:36:58.022Z,24.00
2017-03-31T12:37:57.084Z,23.90
2017-03-31T12:38:56.839Z,23.90
2017-03-31T12:39:55.860Z,23.90
2017-03-31T12:40:54.415Z,23.90
2017-03-31T12:41:53.021Z,24.00
2017-03-31T12:42:52.019Z,24.30
2017-03-31T12:43:51.035Z,24.40